Sioux Lookout Airport

CYXL | YXL

Sioux Lookout , Ontario , Canada

Sunday, June 7th, 2020 | 00:37

Weather

CYXL 070500Z VRB02KT 15SM BKN240 11/05 A3014 RMK CI5 SLP217

Charts

No Charts Available

Gates

No Gates Available

Runways

2 Available

Active ATC

Events -Coming Soon-

1 Events Coming Up Soon

Next event:
CYXL Flyout